Time;durP1;ratioP1;P1;durP2;ratioP2;P2;SDS_P1;SDS_P2;PMS_P1;PMS_P2;Temp;Humidity;BMP_temperature;BMP_pressure;BME280_temperature;BME280_humidity;BME280_pressure;Samples;Min_cycle;Max_cycle;Signal;HPM_P1;HPM_P2
2022/01/16 00:02:08;;;;;;;17.77;9.73;;;3.90;99.90;;;;;;5066912;28;20640;-79
2022/01/16 00:04:30;;;;;;;17.77;10.40;;;3.80;99.90;;;;;;5071582;28;20246;-76
2022/01/16 00:07:01;;;;;;;17.27;9.43;;;3.70;99.90;;;;;;5054368;28;20234;-80
2022/01/16 00:09:27;;;;;;;16.97;9.77;;;3.60;99.90;;;;;;5055569;28;20176;-76
2022/01/16 00:11:58;;;;;;;19.17;10.07;;;3.50;99.90;;;;;;5071645;28;20184;-77
2022/01/16 00:14:25;;;;;;;17.27;9.20;;;3.60;99.90;;;;;;5038790;28;20249;-77
2022/01/16 00:16:52;;;;;;;20.47;10.67;;;3.70;99.90;;;;;;5071971;28;20204;-80
2022/01/16 00:19:17;;;;;;;19.53;11.27;;;3.70;99.90;;;;;;5055092;28;20215;-76
2022/01/16 00:21:43;;;;;;;18.50;10.67;;;3.80;99.90;;;;;;5055194;28;20675;-79
2022/01/16 00:24:11;;;;;;;21.20;11.57;;;3.90;99.90;;;;;;5010922;28;20181;-79
2022/01/16 00:26:37;;;;;;;20.10;10.97;;;3.30;99.90;;;;;;5052746;28;20174;-77
2022/01/16 00:29:07;;;;;;;20.70;11.27;;;3.20;99.90;;;;;;5036005;28;20189;-80
2022/01/16 00:31:35;;;;;;;19.87;10.77;;;3.40;99.90;;;;;;5035852;28;20184;-76
2022/01/16 00:34:01;;;;;;;19.83;10.90;;;3.50;99.90;;;;;;5051421;28;20219;-79
2022/01/16 00:36:26;;;;;;;25.13;11.07;;;3.10;99.90;;;;;;5017411;28;20208;-78
2022/01/16 00:38:53;;;;;;;22.07;11.50;;;3.20;99.90;;;;;;5014631;28;20278;-76
2022/01/16 00:41:21;;;;;;;21.30;11.07;;;3.40;99.90;;;;;;4998886;28;20253;-76
2022/01/16 00:43:49;;;;;;;22.67;11.70;;;3.60;99.90;;;;;;5014627;28;20540;-76
2022/01/16 00:46:15;;;;;;;23.20;11.47;;;3.40;99.90;;;;;;5014880;28;20178;-78
2022/01/16 00:48:42;;;;;;;21.80;11.33;;;3.30;99.90;;;;;;5032602;28;20190;-77
2022/01/16 00:51:08;;;;;;;21.37;11.73;;;2.90;99.90;;;;;;5031018;28;20176;-76
2022/01/16 00:53:34;;;;;;;18.63;10.60;;;2.80;99.90;;;;;;5014958;28;20558;-75
2022/01/16 00:56:00;;;;;;;19.80;10.80;;;2.90;99.90;;;;;;5014740;28;20214;-75
2022/01/16 00:58:26;;;;;;;20.07;10.30;;;3.20;99.90;;;;;;5031161;28;20249;-76
2022/01/16 01:00:52;;;;;;;16.73;10.37;;;3.30;99.90;;;;;;5014741;28;20593;-77
2022/01/16 01:03:19;;;;;;;20.00;10.57;;;3.50;99.90;;;;;;5015305;28;20707;-80
2022/01/16 01:05:45;;;;;;;19.57;10.43;;;3.50;99.90;;;;;;5032035;28;20249;-80
2022/01/16 01:08:11;;;;;;;20.73;11.17;;;3.60;99.90;;;;;;5014821;28;20269;-76
2022/01/16 01:10:40;;;;;;;22.07;10.70;;;3.40;99.90;;;;;;5030698;28;20173;-80
2022/01/16 01:13:56;;;;;;;18.80;10.13;;;3.40;99.90;;;;;;5015011;28;20256;-79
2022/01/16 01:16:04;;;;;;;19.50;10.30;;;3.40;99.90;;;;;;5032804;28;20577;-80
2022/01/16 01:18:32;;;;;;;20.00;10.03;;;3.30;99.90;;;;;;4998892;28;20240;-76
2022/01/16 01:20:59;;;;;;;17.43;9.37;;;3.60;99.90;;;;;;4997907;28;20181;-76
2022/01/16 01:23:25;;;;;;;22.13;10.23;;;3.70;99.90;;;;;;5035788;28;20177;-81
2022/01/16 01:25:51;;;;;;;18.97;10.67;;;3.70;99.90;;;;;;5033599;28;20250;-76
2022/01/16 01:28:17;;;;;;;20.70;10.73;;;3.60;99.90;;;;;;5017180;28;20639;-75
2022/01/16 01:30:44;;;;;;;18.47;9.97;;;3.80;99.90;;;;;;5029627;28;20640;-79
2022/01/16 01:33:13;;;;;;;18.50;10.23;;;3.60;99.90;;;;;;5039160;28;20587;-76
2022/01/16 01:35:40;;;;;;;18.53;10.67;;;3.70;99.90;;;;;;5015410;28;20657;-77
2022/01/16 01:38:08;;;;;;;18.47;10.40;;;3.70;99.90;;;;;;5031603;28;20166;-76
2022/01/16 01:40:35;;;;;;;24.37;11.03;;;3.70;99.90;;;;;;5031690;28;20223;-80
2022/01/16 01:51:23;;;;;;;20.10;10.13;;;3.80;99.90;;;;;;5031167;28;20197;-76
2022/01/16 01:53:55;;;;;;;18.10;10.03;;;3.70;99.90;;;;;;5013242;28;20174;-80
2022/01/16 01:56:23;;;;;;;17.87;10.53;;;3.70;99.90;;;;;;5029741;28;20576;-76
2022/01/16 01:58:50;;;;;;;19.33;10.30;;;3.70;99.90;;;;;;5029948;28;20182;-80
2022/01/16 02:01:16;;;;;;;18.63;9.87;;;3.70;99.90;;;;;;5043766;28;20578;-80
2022/01/16 02:03:42;;;;;;;21.73;11.00;;;3.80;99.90;;;;;;5051641;28;20229;-78
2022/01/16 02:06:13;;;;;;;20.80;10.53;;;3.80;99.90;;;;;;5001629;28;20238;-76
2022/01/16 02:08:52;;;;;;;20.80;10.87;;;3.90;99.90;;;;;;5049699;28;20280;-80
2022/01/16 02:11:23;;;;;;;22.00;11.40;;;3.90;99.90;;;;;;5034726;28;20216;-77
2022/01/16 02:35:26;;;;;;;21.53;10.77;;;4.00;99.90;;;;;;5029775;28;20174;-79
2022/01/16 02:37:52;;;;;;;22.70;11.57;;;3.90;99.90;;;;;;5029966;28;20213;-79
2022/01/16 02:40:23;;;;;;;22.03;10.80;;;3.90;99.90;;;;;;5029382;28;20227;-76
2022/01/16 02:42:51;;;;;;;23.83;11.87;;;4.00;99.90;;;;;;5003314;28;20204;-76
2022/01/16 02:45:28;;;;;;;22.93;11.43;;;4.00;99.90;;;;;;5050761;28;20269;-79
2022/01/16 02:47:57;;;;;;;23.47;11.17;;;4.00;99.90;;;;;;5041619;28;20552;-76
2022/01/16 02:50:23;;;;;;;22.53;11.83;;;4.00;99.90;;;;;;5042357;28;20253;-80
2022/01/16 02:52:50;;;;;;;23.30;11.63;;;4.00;99.90;;;;;;5012840;28;20209;-79
2022/01/16 02:55:20;;;;;;;20.17;10.47;;;4.00;99.90;;;;;;5028780;28;20212;-79
2022/01/16 02:57:47;;;;;;;20.70;11.47;;;3.90;99.90;;;;;;5029000;28;20213;-75
2022/01/16 03:00:13;;;;;;;20.10;11.27;;;3.90;99.90;;;;;;4996129;28;20178;-75
2022/01/16 03:02:39;;;;;;;20.17;11.57;;;4.00;99.90;;;;;;5016671;28;20618;-78
2022/01/16 03:05:05;;;;;;;22.87;11.67;;;4.00;99.90;;;;;;5034647;28;20181;-78
2022/01/16 03:07:31;;;;;;;20.60;10.97;;;3.70;99.90;;;;;;5034616;28;20176;-76
2022/01/16 03:12:36;;;;;;;21.63;10.30;;;3.80;99.90;;;;;;5034614;28;20177;-75
2022/01/16 03:15:02;;;;;;;22.47;10.93;;;3.80;99.90;;;;;;5016792;28;20202;-79
2022/01/16 03:17:51;;;;;;;22.13;10.50;;;3.80;99.90;;;;;;5034364;28;20271;-79
2022/01/16 03:23:01;;;;;;;21.03;10.60;;;3.80;99.90;;;;;;5022683;28;20194;-76
2022/01/16 03:25:26;;;;;;;19.17;10.83;;;3.60;99.90;;;;;;5034898;28;20181;-79
2022/01/16 03:27:52;;;;;;;20.73;10.83;;;3.60;99.90;;;;;;5019725;28;20197;-75
2022/01/16 03:30:18;;;;;;;19.87;10.90;;;3.60;99.90;;;;;;5035924;28;20181;-76
2022/01/16 03:32:44;;;;;;;18.93;10.30;;;3.70;99.90;;;;;;5036164;28;20288;-80
2022/01/16 03:35:10;;;;;;;19.00;10.73;;;3.70;99.90;;;;;;5036353;28;20185;-76
2022/01/16 03:37:36;;;;;;;20.53;10.37;;;3.80;99.90;;;;;;5052612;28;20263;-80
2022/01/16 03:40:04;;;;;;;20.27;10.87;;;3.80;99.90;;;;;;5047724;28;20185;-77
2022/01/16 03:42:33;;;;;;;18.50;10.53;;;3.80;99.90;;;;;;5032260;28;20174;-77
2022/01/16 03:45:00;;;;;;;19.87;10.80;;;3.80;99.90;;;;;;5031957;28;20654;-76
2022/01/16 03:47:26;;;;;;;20.37;11.00;;;3.60;99.90;;;;;;5016370;28;20240;-80
2022/01/16 03:49:51;;;;;;;22.50;10.80;;;3.70;99.90;;;;;;5000287;28;20193;-80
2022/01/16 03:52:18;;;;;;;18.03;10.80;;;3.70;99.90;;;;;;5032365;28;20178;-75
2022/01/16 03:54:45;;;;;;;24.47;10.70;;;3.60;99.90;;;;;;5033761;28;20311;-79
2022/01/16 03:57:11;;;;;;;17.73;10.90;;;3.60;99.90;;;;;;5016340;28;20210;-78
2022/01/16 03:59:36;;;;;;;22.90;11.13;;;3.70;99.90;;;;;;5016094;28;20216;-75
2022/01/16 04:02:04;;;;;;;17.70;10.33;;;3.70;99.90;;;;;;5023046;28;20185;-75
2022/01/16 04:04:30;;;;;;;20.50;10.77;;;3.70;99.90;;;;;;5070203;28;20172;-76
2022/01/16 04:06:56;;;;;;;22.07;10.77;;;3.70;99.90;;;;;;5053766;28;20626;-76
2022/01/16 04:09:22;;;;;;;21.53;10.67;;;3.50;99.90;;;;;;5053708;28;20177;-79
2022/01/16 04:11:52;;;;;;;22.93;11.93;;;3.40;99.90;;;;;;5037310;28;20179;-76
2022/01/16 04:17:04;;;;;;;21.67;10.20;;;3.60;99.90;;;;;;5072603;28;20192;-75
2022/01/16 04:19:30;;;;;;;19.57;10.00;;;3.70;99.90;;;;;;5038622;28;20191;-76
2022/01/16 04:21:56;;;;;;;20.47;11.00;;;3.80;99.90;;;;;;5055099;28;20195;-79
2022/01/16 04:24:21;;;;;;;18.67;10.40;;;3.80;99.90;;;;;;5055244;28;20374;-78
2022/01/16 04:26:47;;;;;;;17.70;9.30;;;3.80;99.90;;;;;;5055224;28;20237;-78
2022/01/16 04:29:13;;;;;;;19.17;10.67;;;3.70;99.90;;;;;;5071484;28;20180;-76
2022/01/16 04:31:39;;;;;;;17.97;9.87;;;3.70;99.90;;;;;;5054607;28;20678;-80
2022/01/16 04:34:04;;;;;;;16.97;9.37;;;3.70;99.90;;;;;;5038673;28;20272;-76
2022/01/16 04:36:30;;;;;;;16.83;9.60;;;3.70;99.90;;;;;;5071437;28;20208;-80
2022/01/16 04:38:56;;;;;;;17.13;10.00;;;3.70;99.90;;;;;;5058511;28;20174;-77
2022/01/16 04:44:07;;;;;;;16.93;9.80;;;3.60;99.90;;;;;;5017698;28;20225;-80
2022/01/16 04:46:34;;;;;;;18.67;10.27;;;3.70;99.90;;;;;;5014826;28;20178;-80
2022/01/16 04:49:01;;;;;;;15.97;9.57;;;3.70;99.90;;;;;;5031539;28;20578;-80
2022/01/16 04:51:28;;;;;;;15.60;9.17;;;3.70;99.90;;;;;;5015033;28;20193;-80
2022/01/16 04:53:54;;;;;;;18.13;9.80;;;3.60;99.90;;;;;;5015011;28;20210;-79
2022/01/16 04:56:20;;;;;;;18.57;10.40;;;3.60;99.90;;;;;;5032007;28;20233;-80
2022/01/16 04:58:46;;;;;;;14.90;8.93;;;3.70;99.90;;;;;;5031860;28;20166;-75
2022/01/16 05:01:12;;;;;;;19.50;9.73;;;3.70;99.90;;;;;;5015551;28;20265;-77
2022/01/16 05:03:39;;;;;;;17.17;10.17;;;3.60;99.90;;;;;;5032251;28;20585;-79
2022/01/16 05:06:05;;;;;;;18.87;11.20;;;3.60;99.90;;;;;;5032156;28;20166;-79
2022/01/16 05:08:32;;;;;;;17.37;9.00;;;3.50;99.90;;;;;;5014250;28;20170;-80
2022/01/16 05:11:00;;;;;;;18.43;10.17;;;3.50;99.90;;;;;;5049097;28;20173;-81
2022/01/16 05:16:33;;;;;;;16.07;9.83;;;3.60;99.90;;;;;;5050461;28;20176;-80
2022/01/16 05:18:58;;;;;;;19.20;9.90;;;3.40;99.90;;;;;;5050882;28;20184;-80
2022/01/16 05:21:24;;;;;;;14.27;8.73;;;3.50;99.90;;;;;;5048754;28;20543;-78
2022/01/16 05:23:50;;;;;;;16.87;9.00;;;3.60;99.90;;;;;;5050420;28;20208;-76
2022/01/16 05:26:19;;;;;;;14.17;8.60;;;3.60;99.90;;;;;;5050483;28;20286;-79
2022/01/16 05:28:45;;;;;;;14.80;8.63;;;3.60;99.90;;;;;;5033574;28;20216;-76
2022/01/16 05:31:11;;;;;;;17.23;9.97;;;3.60;99.90;;;;;;5050152;28;20211;-81
2022/01/16 05:33:37;;;;;;;17.07;8.60;;;3.60;99.90;;;;;;5050783;28;20196;-80
2022/01/16 05:36:03;;;;;;;13.33;8.07;;;3.60;99.90;;;;;;5051751;28;20616;-78
2022/01/16 05:38:29;;;;;;;17.17;9.43;;;3.60;99.90;;;;;;5050013;28;20181;-76
2022/01/16 05:40:55;;;;;;;12.63;8.00;;;3.60;99.90;;;;;;5033645;28;20231;-80
2022/01/16 05:43:21;;;;;;;18.37;9.77;;;3.50;99.90;;;;;;5051270;28;20178;-77
2022/01/16 05:45:47;;;;;;;16.37;9.50;;;3.30;99.90;;;;;;5049983;28;20191;-78
2022/01/16 05:48:12;;;;;;;16.30;8.90;;;3.30;99.90;;;;;;5050390;28;20181;-76
2022/01/16 05:50:38;;;;;;;14.30;8.13;;;3.20;99.90;;;;;;5033453;28;20215;-79
2022/01/16 05:53:04;;;;;;;14.87;8.47;;;3.20;99.90;;;;;;5016695;28;20257;-79
2022/01/16 05:55:36;;;;;;;14.13;8.60;;;3.10;99.90;;;;;;5050081;28;20193;-74
2022/01/16 05:58:04;;;;;;;14.47;8.70;;;3.00;99.90;;;;;;5050205;28;20208;-75
2022/01/16 06:00:30;;;;;;;15.07;9.03;;;3.10;99.90;;;;;;5049747;28;21107;-75
2022/01/16 06:02:56;;;;;;;16.67;9.10;;;3.10;99.90;;;;;;5057784;28;20233;-80
2022/01/16 06:05:23;;;;;;;14.07;8.53;;;3.10;99.90;;;;;;5050770;28;20180;-77
2022/01/16 06:07:58;;;;;;;14.23;8.97;;;3.10;99.90;;;;;;5051916;28;20188;-79
2022/01/16 06:10:25;;;;;;;15.73;8.53;;;3.10;99.90;;;;;;5052335;28;20867;-79
2022/01/16 06:12:51;;;;;;;15.40;8.47;;;3.10;99.90;;;;;;5069618;28;20560;-79
2022/01/16 06:15:21;;;;;;;14.37;8.37;;;3.10;99.90;;;;;;5070598;28;20271;-76
2022/01/16 06:17:48;;;;;;;15.67;8.37;;;3.10;99.90;;;;;;5069476;28;20204;-80
2022/01/16 06:20:16;;;;;;;18.30;9.47;;;3.10;99.90;;;;;;5052686;28;20211;-78
2022/01/16 06:22:43;;;;;;;14.67;8.67;;;3.00;99.90;;;;;;5020798;28;20180;-76
2022/01/16 06:25:10;;;;;;;13.67;8.40;;;2.90;99.90;;;;;;5071012;28;20177;-76
2022/01/16 06:27:36;;;;;;;15.57;8.23;;;2.90;99.90;;;;;;5053387;28;20318;-76
2022/01/16 06:30:04;;;;;;;15.77;9.30;;;2.90;99.90;;;;;;5070756;28;20183;-79
2022/01/16 06:32:30;;;;;;;15.63;9.37;;;2.90;99.90;;;;;;5069687;28;20169;-76
2022/01/16 06:34:56;;;;;;;17.73;9.07;;;2.80;99.90;;;;;;5053036;28;20324;-78
2022/01/16 06:37:22;;;;;;;15.53;8.43;;;2.70;99.90;;;;;;5056463;28;20237;-78
2022/01/16 06:39:48;;;;;;;17.83;9.00;;;2.80;99.90;;;;;;5047646;28;20166;-80
2022/01/16 06:42:13;;;;;;;16.13;9.47;;;2.90;99.90;;;;;;5016887;28;20752;-80
2022/01/16 06:44:39;;;;;;;12.53;8.03;;;3.00;99.90;;;;;;5033785;28;20217;-75
2022/01/16 06:47:05;;;;;;;16.57;9.00;;;2.70;99.90;;;;;;5000969;28;20185;-76
2022/01/16 06:49:31;;;;;;;14.47;8.90;;;2.70;99.90;;;;;;5017038;28;20205;-80
2022/01/16 06:51:56;;;;;;;17.20;9.50;;;2.50;99.90;;;;;;5000209;28;20181;-78
2022/01/16 06:54:22;;;;;;;15.10;8.43;;;2.50;99.90;;;;;;5000676;28;20178;-80
2022/01/16 06:56:48;;;;;;;15.00;8.57;;;2.70;99.90;;;;;;5000205;28;20332;-75
2022/01/16 06:59:14;;;;;;;17.10;8.93;;;2.70;99.90;;;;;;5017214;28;20178;-77
2022/01/16 07:01:39;;;;;;;15.37;8.80;;;2.70;99.90;;;;;;5000224;28;20490;-80
2022/01/16 07:04:05;;;;;;;14.37;8.33;;;2.70;99.90;;;;;;5016898;28;20661;-79
2022/01/16 07:06:31;;;;;;;16.27;8.87;;;2.80;99.90;;;;;;5016846;28;20268;-77
2022/01/16 07:08:57;;;;;;;12.27;8.10;;;2.70;99.90;;;;;;5017109;28;20209;-80
2022/01/16 07:11:23;;;;;;;15.50;8.77;;;2.80;99.90;;;;;;5000068;28;20701;-79
2022/01/16 07:13:49;;;;;;;15.77;8.70;;;2.70;99.90;;;;;;5016335;28;20177;-75
2022/01/16 07:16:15;;;;;;;14.13;8.73;;;2.50;99.90;;;;;;5024969;28;20223;-79
2022/01/16 07:18:41;;;;;;;14.30;7.93;;;2.60;99.90;;;;;;5053366;28;20192;-79
2022/01/16 07:21:12;;;;;;;14.43;8.23;;;2.70;99.90;;;;;;5020788;28;20177;-75
2022/01/16 07:23:46;;;;;;;13.07;8.00;;;2.80;99.90;;;;;;5052680;28;20170;-81
2022/01/16 07:26:18;;;;;;;14.20;8.97;;;3.00;99.90;;;;;;5052446;28;20173;-75
2022/01/16 07:28:44;;;;;;;11.47;7.87;;;3.00;99.90;;;;;;5036164;28;20181;-81
2022/01/16 07:31:10;;;;;;;13.10;8.03;;;2.80;99.90;;;;;;5036523;28;20206;-80
2022/01/16 07:33:36;;;;;;;14.00;8.20;;;2.80;99.90;;;;;;5036121;28;20195;-81
2022/01/16 07:36:04;;;;;;;14.23;8.30;;;2.80;99.90;;;;;;5035649;28;20189;-77
2022/01/16 07:38:30;;;;;;;12.53;7.40;;;2.60;99.90;;;;;;5052950;28;20180;-80
2022/01/16 07:40:56;;;;;;;12.40;7.73;;;2.70;99.90;;;;;;5035745;28;20169;-80
2022/01/16 07:43:22;;;;;;;15.90;8.43;;;2.60;99.90;;;;;;5019429;28;20263;-77
2022/01/16 07:45:48;;;;;;;14.33;7.67;;;2.50;99.90;;;;;;5019168;28;20177;-76
2022/01/16 07:48:13;;;;;;;13.77;7.70;;;2.70;99.90;;;;;;5035771;28;20879;-76
2022/01/16 07:50:40;;;;;;;11.63;7.83;;;2.60;99.90;;;;;;5019650;28;20174;-75
2022/01/16 07:53:07;;;;;;;13.20;8.07;;;2.70;99.90;;;;;;5019583;28;20181;-76
2022/01/16 07:55:33;;;;;;;14.73;8.30;;;2.70;99.90;;;;;;5051813;28;20559;-78
2022/01/16 07:58:00;;;;;;;13.73;7.67;;;2.20;99.90;;;;;;5035522;28;20208;-76
2022/01/16 08:00:26;;;;;;;13.67;8.80;;;2.30;99.90;;;;;;5051463;28;20173;-77
2022/01/16 08:02:57;;;;;;;12.77;7.67;;;2.30;99.90;;;;;;5061819;28;20258;-79
2022/01/16 08:05:25;;;;;;;13.87;7.90;;;2.20;99.90;;;;;;5054789;28;20165;-79
2022/01/16 08:07:51;;;;;;;15.63;9.43;;;2.40;99.90;;;;;;5071419;28;20208;-76
2022/01/16 08:10:17;;;;;;;14.50;8.37;;;2.50;99.90;;;;;;5037779;28;20207;-80
2022/01/16 08:12:43;;;;;;;14.33;8.40;;;2.60;99.90;;;;;;5071734;28;20643;-76
2022/01/16 08:15:09;;;;;;;11.90;8.00;;;2.50;99.90;;;;;;5038289;28;20207;-79
2022/01/16 08:17:36;;;;;;;15.57;9.10;;;2.20;99.90;;;;;;5072510;28;20214;-76
2022/01/16 08:20:04;;;;;;;15.83;8.03;;;2.40;99.90;;;;;;5073069;28;20575;-75
2022/01/16 08:22:30;;;;;;;14.33;8.63;;;2.30;99.90;;;;;;5055790;28;20174;-77
2022/01/16 08:24:56;;;;;;;12.67;8.70;;;2.10;99.90;;;;;;5068496;28;20173;-76
2022/01/16 08:27:22;;;;;;;14.93;9.07;;;2.50;99.90;;;;;;5052703;28;20181;-76
2022/01/16 08:29:48;;;;;;;17.10;8.37;;;2.60;99.90;;;;;;5034240;28;20226;-75
2022/01/16 08:32:14;;;;;;;15.00;8.63;;;2.60;99.90;;;;;;5047849;28;20185;-79
2022/01/16 08:34:40;;;;;;;16.43;9.40;;;2.50;99.90;;;;;;5016651;28;20284;-79
2022/01/16 08:37:05;;;;;;;18.37;9.50;;;2.50;99.90;;;;;;5031844;28;20703;-80
2022/01/16 08:39:31;;;;;;;17.37;9.53;;;2.60;99.90;;;;;;5018448;28;20643;-76
2022/01/16 08:41:57;;;;;;;16.47;9.10;;;2.50;99.90;;;;;;5024419;28;20173;-79
2022/01/16 08:44:23;;;;;;;19.20;9.47;;;2.30;99.90;;;;;;5018802;28;20189;-78
2022/01/16 08:46:48;;;;;;;19.23;10.97;;;2.60;99.90;;;;;;5037630;28;20269;-76
2022/01/16 08:49:14;;;;;;;14.13;8.97;;;2.80;99.90;;;;;;5030069;28;21605;-76
2022/01/16 08:51:40;;;;;;;15.87;9.27;;;2.70;99.90;;;;;;5016018;28;20217;-79
2022/01/16 08:54:06;;;;;;;16.43;9.47;;;2.90;99.90;;;;;;5027484;28;20173;-78
2022/01/16 08:56:32;;;;;;;16.00;9.43;;;3.00;99.90;;;;;;5033542;28;20202;-76
2022/01/16 08:58:58;;;;;;;16.53;9.77;;;3.10;99.90;;;;;;5036873;28;20209;-77
2022/01/16 09:01:24;;;;;;;15.80;9.47;;;3.30;99.90;;;;;;5022652;28;20242;-80
2022/01/16 09:03:50;;;;;;;16.67;9.20;;;3.20;99.90;;;;;;5028321;28;20560;-78
2022/01/16 09:06:17;;;;;;;18.83;9.50;;;3.20;99.90;;;;;;5027175;28;20182;-76
2022/01/16 09:08:43;;;;;;;16.33;9.83;;;3.10;99.90;;;;;;5026406;28;20328;-80
2022/01/16 09:11:09;;;;;;;15.43;9.33;;;3.00;99.90;;;;;;5019363;28;20189;-79
2022/01/16 09:13:37;;;;;;;18.07;9.77;;;3.00;99.90;;;;;;5034990;28;20189;-79
2022/01/16 09:16:07;;;;;;;18.73;10.10;;;3.10;99.90;;;;;;5011772;28;20291;-76
2022/01/16 09:18:33;;;;;;;16.47;9.43;;;3.10;99.90;;;;;;5028117;28;20273;-76
2022/01/16 09:21:00;;;;;;;17.10;9.63;;;3.20;99.90;;;;;;5033293;28;20583;-77
2022/01/16 09:23:26;;;;;;;16.63;9.73;;;3.30;99.90;;;;;;5000900;28;20209;-80
2022/01/16 09:25:52;;;;;;;17.53;10.03;;;3.40;99.90;;;;;;5030492;28;20223;-80
2022/01/16 09:28:18;;;;;;;16.47;9.10;;;3.40;99.90;;;;;;5017386;28;20196;-79
2022/01/16 09:30:44;;;;;;;18.07;9.87;;;3.40;99.90;;;;;;5029431;28;20264;-76
2022/01/16 09:33:10;;;;;;;13.73;8.70;;;3.30;99.90;;;;;;5021406;28;20180;-77
2022/01/16 09:35:37;;;;;;;15.03;8.90;;;3.30;99.90;;;;;;5030362;28;20184;-77
2022/01/16 09:38:04;;;;;;;16.47;10.10;;;3.50;99.90;;;;;;5014353;28;20259;-77
2022/01/16 09:40:30;;;;;;;18.50;10.20;;;3.60;99.90;;;;;;5033059;28;20169;-76
2022/01/16 09:42:58;;;;;;;20.17;10.93;;;3.60;99.90;;;;;;5039580;28;20182;-77
2022/01/16 09:45:24;;;;;;;17.20;10.13;;;3.70;99.90;;;;;;5036427;28;20188;-78
2022/01/16 09:47:50;;;;;;;18.00;10.27;;;3.70;99.90;;;;;;5013938;28;20535;-80
2022/01/16 09:50:24;;;;;;;19.50;10.40;;;3.70;99.90;;;;;;5043058;28;20181;-78
2022/01/16 09:52:50;;;;;;;21.13;9.93;;;3.40;99.90;;;;;;5017564;28;20186;-76
2022/01/16 09:55:21;;;;;;;20.17;11.13;;;2.80;99.90;;;;;;5033517;28;20196;-78
2022/01/16 09:57:50;;;;;;;14.03;9.03;;;3.10;99.90;;;;;;5050245;28;20215;-78
2022/01/16 10:00:20;;;;;;;18.83;10.17;;;3.10;99.90;;;;;;5050087;28;20169;-75
2022/01/16 10:02:47;;;;;;;15.10;9.93;;;3.20;99.90;;;;;;5037030;28;20767;-75
2022/01/16 10:05:36;;;;;;;15.43;9.50;;;3.40;99.90;;;;;;5051629;28;20185;-76
2022/01/16 10:08:04;;;;;;;17.27;9.73;;;3.60;99.90;;;;;;5068706;28;20574;-77
2022/01/16 10:10:36;;;;;;;15.77;10.07;;;3.10;99.90;;;;;;5069758;28;20180;-79
2022/01/16 10:13:20;;;;;;;18.73;9.80;;;3.10;99.90;;;;;;5036446;28;20186;-79
2022/01/16 10:15:53;;;;;;;14.77;9.87;;;2.90;99.90;;;;;;5040861;28;20205;-79
2022/01/16 10:18:33;;;;;;;18.20;9.73;;;2.90;99.90;;;;;;5024918;28;20215;-78
2022/01/16 10:20:59;;;;;;;16.03;9.57;;;3.30;99.90;;;;;;5025259;28;20229;-77
2022/01/16 10:23:26;;;;;;;15.60;9.03;;;3.10;99.90;;;;;;5000032;28;20174;-79
2022/01/16 10:25:52;;;;;;;17.57;9.97;;;3.10;99.90;;;;;;5007023;28;20209;-79
2022/01/16 10:28:20;;;;;;;14.73;9.80;;;3.30;99.90;;;;;;5030870;28;20737;-77
2022/01/16 10:30:55;;;;;;;19.97;10.53;;;3.40;99.90;;;;;;5046825;28;20184;-77
2022/01/16 10:33:32;;;;;;;17.90;9.83;;;3.70;99.90;;;;;;5034944;28;20736;-76
2022/01/16 10:35:57;;;;;;;16.93;9.60;;;3.80;99.90;;;;;;5037655;28;20173;-77
2022/01/16 10:38:31;;;;;;;17.63;10.10;;;4.00;99.90;;;;;;5023453;28;20242;-77
2022/01/16 10:41:04;;;;;;;17.67;10.13;;;4.20;99.90;;;;;;5024461;28;20170;-79
2022/01/16 10:43:46;;;;;;;15.40;10.30;;;4.40;99.90;;;;;;5040997;28;20229;-79
2022/01/16 10:46:15;;;;;;;15.03;9.93;;;4.20;99.90;;;;;;5038843;28;20174;-79
2022/01/16 10:48:40;;;;;;;17.23;9.47;;;4.10;99.90;;;;;;5040085;28;20170;-78
2022/01/16 10:51:20;;;;;;;18.73;9.63;;;4.40;99.90;;;;;;5018884;28;20180;-79
2022/01/16 10:53:45;;;;;;;16.57;10.00;;;4.50;99.90;;;;;;5013428;28;20189;-77
2022/01/16 10:56:11;;;;;;;17.80;9.87;;;4.60;99.90;;;;;;5007207;28;20185;-78
2022/01/16 10:58:37;;;;;;;19.17;11.17;;;4.50;99.90;;;;;;5016250;28;20182;-78
2022/01/16 11:01:14;;;;;;;18.43;11.57;;;4.40;99.90;;;;;;5040455;28;20177;-79
2022/01/16 11:03:58;;;;;;;16.73;10.73;;;4.50;99.90;;;;;;5032145;28;20181;-79
2022/01/16 11:06:28;;;;;;;17.40;9.87;;;4.50;99.90;;;;;;5028423;28;20200;-78
2022/01/16 11:08:57;;;;;;;16.00;9.70;;;4.50;99.90;;;;;;5049614;28;20539;-79
2022/01/16 11:11:25;;;;;;;16.77;9.83;;;4.50;99.90;;;;;;5032812;28;20629;-77
2022/01/16 11:13:51;;;;;;;18.60;10.37;;;4.40;99.90;;;;;;5031396;28;20717;-76
2022/01/16 11:16:22;;;;;;;19.40;10.97;;;3.90;99.90;;;;;;5039321;28;20300;-78
2022/01/16 11:18:50;;;;;;;16.73;9.73;;;4.20;99.90;;;;;;5012850;28;20213;-77
2022/01/16 11:21:20;;;;;;;17.90;9.47;;;4.40;99.90;;;;;;5044468;28;20181;-79
2022/01/16 11:24:00;;;;;;;17.87;10.50;;;4.30;99.90;;;;;;5037338;28;20181;-77
2022/01/16 11:26:31;;;;;;;19.77;10.00;;;4.40;99.90;;;;;;5048683;28;20197;-80
2022/01/16 11:29:04;;;;;;;19.43;10.13;;;4.60;99.90;;;;;;5041069;28;20220;-78
2022/01/16 11:31:30;;;;;;;19.57;10.57;;;4.70;99.90;;;;;;5026327;28;20205;-78
2022/01/16 11:33:55;;;;;;;17.27;9.70;;;4.60;99.90;;;;;;5037871;28;20657;-79
2022/01/16 11:36:25;;;;;;;21.60;11.40;;;4.50;99.90;;;;;;5010662;28;20225;-78
2022/01/16 11:38:56;;;;;;;18.07;11.23;;;4.50;99.90;;;;;;5029937;28;20681;-78
2022/01/16 11:41:33;;;;;;;20.37;11.57;;;4.90;99.90;;;;;;5021972;28;20181;-78
2022/01/16 11:44:04;;;;;;;17.70;11.30;;;4.90;99.90;;;;;;5027320;28;20243;-78
2022/01/16 11:46:34;;;;;;;21.97;12.30;;;5.10;99.90;;;;;;5044935;28;20260;-78
2022/01/16 11:49:03;;;;;;;23.07;12.40;;;5.10;99.90;;;;;;5045056;28;20618;-79
2022/01/16 11:51:35;;;;;;;21.80;11.23;;;5.10;99.90;;;;;;5051137;28;20718;-78
2022/01/16 11:54:13;;;;;;;19.83;11.47;;;5.10;99.90;;;;;;5048511;28;20230;-77
2022/01/16 11:56:39;;;;;;;19.30;11.43;;;4.90;99.90;;;;;;5024374;28;20200;-79
2022/01/16 11:59:28;;;;;;;20.90;11.60;;;5.00;99.90;;;;;;5043773;28;20236;-79
2022/01/16 12:02:08;;;;;;;24.00;12.40;;;5.00;99.90;;;;;;5041442;28;20229;-76
2022/01/16 12:04:33;;;;;;;19.87;11.47;;;5.00;99.90;;;;;;5031889;28;20178;-76
2022/01/16 12:07:06;;;;;;;21.00;12.60;;;4.90;99.90;;;;;;5038181;28;20229;-76
2022/01/16 12:09:35;;;;;;;23.83;11.37;;;4.90;99.90;;;;;;5025733;28;20223;-77
2022/01/16 12:12:14;;;;;;;21.97;12.07;;;4.90;99.90;;;;;;5049354;28;20295;-79
2022/01/16 12:14:59;;;;;;;22.47;11.43;;;4.80;99.90;;;;;;5020198;28;20177;-78
2022/01/16 12:17:44;;;;;;;21.73;11.50;;;4.80;99.90;;;;;;5049121;28;20189;-79
2022/01/16 12:20:17;;;;;;;24.77;12.43;;;5.00;99.90;;;;;;5048041;28;20169;-79
2022/01/16 12:23:10;;;;;;;17.47;10.57;;;5.20;99.90;;;;;;5047482;28;20177;-80
2022/01/16 12:25:43;;;;;;;19.37;10.80;;;5.30;99.90;;;;;;5015986;28;20174;-79
2022/01/16 12:28:08;;;;;;;19.30;11.23;;;5.20;99.90;;;;;;5000277;28;20559;-79
2022/01/16 12:30:55;;;;;;;20.00;12.00;;;5.10;99.90;;;;;;5048584;28;20180;-80
2022/01/16 12:33:24;;;;;;;17.57;10.03;;;4.90;99.90;;;;;;5040254;28;20177;-79
2022/01/16 12:35:58;;;;;;;17.43;9.47;;;5.20;99.90;;;;;;5044284;28;20715;-79
2022/01/16 12:38:33;;;;;;;16.83;9.47;;;5.10;99.90;;;;;;5035574;28;20292;-78
2022/01/16 12:41:03;;;;;;;17.53;9.37;;;5.20;99.90;;;;;;5033264;28;20185;-77
2022/01/16 12:45:57;;;;;;;15.23;8.63;;;5.10;99.90;;;;;;5036966;28;20209;-79
2022/01/16 12:48:23;;;;;;;17.93;9.87;;;5.10;99.90;;;;;;5036616;28;20272;-79
2022/01/16 12:51:02;;;;;;;12.90;7.30;;;5.20;99.90;;;;;;5021366;28;20281;-78
2022/01/16 12:53:36;;;;;;;11.67;6.87;;;5.00;99.90;;;;;;5021233;28;20594;-80
2022/01/16 12:56:37;;;;;;;11.37;6.37;;;5.00;99.90;;;;;;5034110;28;20185;-79
2022/01/16 12:59:14;;;;;;;11.70;7.00;;;5.10;99.90;;;;;;5013173;28;20206;-79
2022/01/16 13:01:49;;;;;;;11.70;6.03;;;5.20;99.90;;;;;;5046325;28;20203;-78
2022/01/16 13:04:22;;;;;;;21.80;11.37;;;5.40;99.90;;;;;;5033392;28;20165;-78
2022/01/16 13:06:49;;;;;;;19.80;10.23;;;5.50;99.90;;;;;;5038194;28;20247;-79
2022/01/16 13:09:15;;;;;;;12.93;7.27;;;5.50;99.90;;;;;;5038349;28;20368;-78
2022/01/16 13:11:50;;;;;;;11.33;5.93;;;5.20;99.90;;;;;;5027473;28;20764;-79
2022/01/16 13:14:25;;;;;;;11.37;7.03;;;5.30;99.90;;;;;;5022448;28;20267;-79
2022/01/16 13:16:53;;;;;;;10.83;5.90;;;5.20;99.90;;;;;;5014902;28;20220;-79
2022/01/16 13:19:25;;;;;;;15.00;7.53;;;5.20;99.90;;;;;;5026571;28;20534;-76
2022/01/16 13:22:03;;;;;;;22.30;11.13;;;5.50;99.90;;;;;;5028386;28;20184;-78
2022/01/16 13:24:40;;;;;;;9.17;5.73;;;5.60;99.90;;;;;;5042035;28;20170;-77
2022/01/16 13:27:12;;;;;;;17.70;8.80;;;5.40;99.90;;;;;;5040083;28;20187;-78
2022/01/16 13:29:40;;;;;;;25.13;11.20;;;5.50;99.90;;;;;;5024914;28;20190;-79
2022/01/16 13:32:19;;;;;;;21.03;12.63;;;5.50;99.90;;;;;;5047866;28;20173;-78
2022/01/16 13:34:44;;;;;;;8.33;5.50;;;5.60;99.90;;;;;;5031646;28;20185;-78
2022/01/16 13:37:25;;;;;;;11.13;6.67;;;5.50;99.90;;;;;;5032962;28;20200;-78